createdAt,value
2023-05-12T00:02:03.943Z,98490.16
2023-05-12T00:04:30.817Z,98484.98
2023-05-12T00:06:58.042Z,98486.31
2023-05-12T00:09:24.793Z,98483.33
2023-05-12T00:11:51.272Z,98483.33
2023-05-12T00:14:18.038Z,98480.69
2023-05-12T00:16:44.516Z,98477.36
2023-05-12T00:19:11.106Z,98479.27
2023-05-12T00:21:38.078Z,98479.93
2023-05-12T00:24:05.398Z,98477.04
2023-05-12T00:26:31.870Z,98477.89
2023-05-12T00:28:58.384Z,98486.23
2023-05-12T00:31:24.921Z,98485.71
2023-05-12T00:33:51.596Z,98487.71
2023-05-12T00:36:18.318Z,98489.70
2023-05-12T00:38:44.972Z,98490.58
2023-05-12T00:41:11.515Z,98493.83
2023-05-12T00:43:38.113Z,98494.83
2023-05-12T00:46:05.633Z,98497.75
2023-05-12T00:48:33.003Z,98494.74
2023-05-12T00:51:01.067Z,98495.46
2023-05-12T00:53:41.096Z,98491.79
2023-05-12T00:56:14.613Z,98493.95
2023-05-12T00:58:41.074Z,98494.02
2023-05-12T01:01:07.756Z,98497.85
2023-05-12T01:03:34.696Z,98500.13
2023-05-12T01:06:12.294Z,98509.06
2023-05-12T01:08:39.592Z,98513.60
2023-05-12T01:11:06.083Z,98508.23
2023-05-12T01:13:32.640Z,98512.06
2023-05-12T01:16:02.616Z,98513.82
2023-05-12T01:18:31.297Z,98512.56
2023-05-12T01:21:00.428Z,98516.48
2023-05-12T01:23:33.804Z,98512.92
2023-05-12T01:26:06.763Z,98515.36
2023-05-12T01:28:35.689Z,98516.17
2023-05-12T01:31:05.452Z,98514.61
2023-05-12T01:33:33.464Z,98517.02
2023-05-12T01:36:00.018Z,98513.20
2023-05-12T01:38:27.166Z,98513.57
2023-05-12T01:40:53.805Z,98513.42
2023-05-12T01:43:22.073Z,98515.32
2023-05-12T01:45:48.851Z,98514.38
2023-05-12T01:48:15.586Z,98515.41
2023-05-12T01:50:42.101Z,98514.58
2023-05-12T01:53:08.734Z,98515.19
2023-05-12T01:55:35.237Z,98515.30
2023-05-12T01:58:01.690Z,98512.30
2023-05-12T02:00:28.215Z,98514.83
2023-05-12T02:02:54.800Z,98517.73
2023-05-12T02:05:21.410Z,98516.48
2023-05-12T02:07:48.666Z,98515.45
2023-05-12T02:10:15.111Z,98511.92
2023-05-12T02:12:42.007Z,98506.88
2023-05-12T02:15:09.007Z,98503.73
2023-05-12T02:17:35.593Z,98504.32
2023-05-12T02:20:02.408Z,98503.31
2023-05-12T02:22:28.874Z,98506.00
2023-05-12T02:24:55.368Z,98503.70
2023-05-12T02:27:21.938Z,98505.88
2023-05-12T02:29:48.359Z,98504.39
2023-05-12T02:32:14.880Z,98510.02
2023-05-12T02:34:41.360Z,98507.30
2023-05-12T02:37:08.158Z,98509.41
2023-05-12T02:39:34.655Z,98510.08
2023-05-12T02:42:01.159Z,98513.41
2023-05-12T02:44:27.705Z,98513.95
2023-05-12T02:46:54.165Z,98510.92
2023-05-12T02:49:21.111Z,98514.67
2023-05-12T02:51:47.557Z,98516.61
2023-05-12T02:54:14.266Z,98517.48
2023-05-12T02:56:41.018Z,98514.64
2023-05-12T02:59:08.054Z,98522.57
2023-05-12T03:01:34.538Z,98522.08
2023-05-12T03:04:01.192Z,98521.83
2023-05-12T03:06:28.141Z,98521.23
2023-05-12T03:08:54.686Z,98514.27
2023-05-12T03:11:22.307Z,98510.30
2023-05-12T03:13:48.807Z,98506.88
2023-05-12T03:16:15.262Z,98508.94
2023-05-12T03:18:41.843Z,98509.61
2023-05-12T03:21:08.477Z,98512.14
2023-05-12T03:23:34.983Z,98507.54
2023-05-12T03:26:01.550Z,98508.96
2023-05-12T03:28:28.230Z,98516.39
2023-05-12T03:30:55.175Z,98512.29
2023-05-12T03:33:21.807Z,98512.34
2023-05-12T03:35:48.366Z,98509.67
2023-05-12T03:38:14.865Z,98513.38
2023-05-12T03:40:41.485Z,98511.56
2023-05-12T03:43:08.113Z,98512.14
2023-05-12T03:45:34.584Z,98514.80
2023-05-12T03:48:01.250Z,98522.76
2023-05-12T03:50:27.931Z,98523.52
2023-05-12T03:52:54.485Z,98521.29
2023-05-12T03:55:21.242Z,98523.40
2023-05-12T03:57:48.647Z,98525.30
2023-05-12T04:00:15.737Z,98523.04
2023-05-12T04:02:42.530Z,98527.20
2023-05-12T04:05:09.851Z,98523.44
2023-05-12T04:07:36.762Z,98525.44
2023-05-12T04:10:03.983Z,98531.96
2023-05-12T04:12:30.531Z,98527.20
2023-05-12T04:14:58.046Z,98527.85
2023-05-12T04:17:25.172Z,98529.86
2023-05-12T04:19:52.217Z,98532.05
2023-05-12T04:22:18.768Z,98531.27
2023-05-12T04:24:45.305Z,98537.71
2023-05-12T04:27:11.823Z,98543.17
2023-05-12T04:29:38.336Z,98543.16
2023-05-12T04:32:05.792Z,98540.35
2023-05-12T04:34:32.330Z,98539.42
2023-05-12T04:36:58.810Z,98533.11
2023-05-12T04:39:25.620Z,98532.68
2023-05-12T04:41:52.271Z,98527.89
2023-05-12T04:44:19.020Z,98531.89
2023-05-12T04:46:45.550Z,98526.35
2023-05-12T04:49:12.488Z,98533.48
2023-05-12T04:51:39.157Z,98524.72
2023-05-12T04:54:06.009Z,98530.54
2023-05-12T04:56:32.444Z,98530.43
2023-05-12T04:58:59.019Z,98531.08
2023-05-12T05:01:25.568Z,98538.16
2023-05-12T05:03:52.492Z,98541.74
2023-05-12T05:06:19.247Z,98542.99
2023-05-12T05:08:46.019Z,98540.77
2023-05-12T05:11:12.538Z,98538.73
2023-05-12T05:13:39.213Z,98545.83
2023-05-12T05:16:06.713Z,98543.68
2023-05-12T05:18:33.260Z,98546.41
2023-05-12T05:21:00.574Z,98544.64
2023-05-12T05:23:27.153Z,98533.30
2023-05-12T05:25:54.068Z,98537.44
2023-05-12T05:28:21.028Z,98538.66
2023-05-12T05:30:47.573Z,98537.98
2023-05-12T05:33:14.282Z,98544.88
2023-05-12T05:35:41.354Z,98547.75
2023-05-12T05:38:07.814Z,98544.43
2023-05-12T05:40:48.811Z,98548.46
2023-05-12T05:43:19.217Z,98551.10
2023-05-12T05:45:45.831Z,98555.51
2023-05-12T05:48:12.318Z,98553.98
2023-05-12T05:50:39.163Z,98559.06
2023-05-12T05:53:05.594Z,98558.59
2023-05-12T05:55:32.273Z,98556.34
2023-05-12T05:57:58.837Z,98564.27
2023-05-12T06:00:25.281Z,98559.88
2023-05-12T06:02:51.788Z,98558.84
2023-05-12T06:05:18.647Z,98556.38
2023-05-12T06:07:45.392Z,98557.94
2023-05-12T06:10:12.154Z,98562.81
2023-05-12T06:12:38.601Z,98567.39
2023-05-12T06:15:05.800Z,98565.45
2023-05-12T06:17:32.777Z,98566.74
2023-05-12T06:19:59.444Z,98563.16
2023-05-12T06:22:26.076Z,98565.89
2023-05-12T06:24:52.517Z,98564.20
2023-05-12T06:27:19.090Z,98561.30
2023-05-12T06:29:45.482Z,98562.65
2023-05-12T06:32:11.983Z,98564.86
2023-05-12T06:34:38.811Z,98565.20
2023-05-12T06:37:05.379Z,98560.56
2023-05-12T06:39:31.950Z,98559.05
2023-05-12T06:41:58.572Z,98561.91
2023-05-12T06:44:25.009Z,98556.94
2023-05-12T06:46:51.492Z,98549.75
2023-05-12T06:49:17.935Z,98551.34
2023-05-12T06:51:44.616Z,98546.70
2023-05-12T06:54:11.352Z,98545.06
2023-05-12T06:56:37.931Z,98553.89
2023-05-12T06:59:04.377Z,98554.03
2023-05-12T07:01:32.114Z,98551.38
2023-05-12T07:03:59.471Z,98549.23
2023-05-12T07:06:26.325Z,98547.73
2023-05-12T07:08:52.768Z,98547.63
2023-05-12T07:11:19.570Z,98545.98
2023-05-12T07:13:47.112Z,98547.35
2023-05-12T07:16:14.537Z,98545.41
2023-05-12T07:18:41.345Z,98543.30
2023-05-12T07:21:08.391Z,98541.20
2023-05-12T07:23:35.421Z,98538.98
2023-05-12T07:26:03.599Z,98533.98
2023-05-12T07:28:31.263Z,98537.08
2023-05-12T07:30:58.989Z,98539.05
2023-05-12T07:33:25.507Z,98542.18
2023-05-12T07:35:52.066Z,98537.34
2023-05-12T07:38:18.510Z,98535.90
2023-05-12T07:40:45.022Z,98536.58
2023-05-12T07:43:12.497Z,98537.00
2023-05-12T07:45:38.897Z,98538.04
2023-05-12T07:48:05.577Z,98534.77
2023-05-12T07:50:32.104Z,98532.59
2023-05-12T07:52:58.499Z,98535.34
2023-05-12T07:55:24.984Z,98533.66
2023-05-12T07:57:51.694Z,98538.82
2023-05-12T08:00:18.841Z,98531.61
2023-05-12T08:02:45.773Z,98528.77
2023-05-12T08:05:12.770Z,98527.25
2023-05-12T08:07:41.219Z,98524.00
2023-05-12T08:10:08.036Z,98519.29
2023-05-12T08:12:34.474Z,98517.19
2023-05-12T08:15:00.923Z,98513.27
2023-05-12T08:17:29.274Z,98516.04
2023-05-12T08:19:56.316Z,98515.14
2023-05-12T08:22:22.721Z,98523.54
2023-05-12T08:24:49.247Z,98518.02
2023-05-12T08:27:15.720Z,98509.23
2023-05-12T08:29:42.155Z,98506.44
2023-05-12T08:32:08.818Z,98508.77
2023-05-12T08:34:35.459Z,98517.77
2023-05-12T08:37:01.995Z,98519.84
2023-05-12T08:39:28.732Z,98516.09
2023-05-12T08:42:18.570Z,98513.79
2023-05-12T08:44:46.582Z,98518.16
2023-05-12T08:47:15.364Z,98518.98
2023-05-12T08:49:44.047Z,98520.34
2023-05-12T08:52:12.716Z,98517.85
2023-05-12T08:54:52.164Z,98511.02
2023-05-12T08:57:20.633Z,98515.42
2023-05-12T08:59:47.859Z,98515.96
2023-05-12T09:02:17.303Z,98511.67
2023-05-12T09:04:44.355Z,98519.69
2023-05-12T09:07:11.418Z,98519.30
2023-05-12T09:09:39.593Z,98518.87
2023-05-12T09:12:11.840Z,98517.42
2023-05-12T09:14:40.449Z,98513.44
2023-05-12T09:17:06.975Z,98519.14
2023-05-12T09:19:33.557Z,98515.29
2023-05-12T09:22:00.605Z,98514.88
2023-05-12T09:24:38.142Z,98523.83
2023-05-12T09:27:05.682Z,98523.80
2023-05-12T09:32:02.455Z,98517.96
2023-05-12T09:34:33.915Z,98517.15
2023-05-12T09:37:02.599Z,98520.17
2023-05-12T09:39:29.121Z,98519.19
2023-05-12T09:41:56.105Z,98520.19
2023-05-12T09:44:24.412Z,98510.99
2023-05-12T09:46:51.472Z,98518.13
2023-05-12T09:49:19.971Z,98519.63
2023-05-12T09:51:46.908Z,98521.52
2023-05-12T09:54:13.373Z,98523.90
2023-05-12T09:56:41.200Z,98520.55
2023-05-12T09:59:12.996Z,98524.48
2023-05-12T10:01:39.783Z,98519.61
2023-05-12T10:04:08.472Z,98519.53
2023-05-12T10:06:40.507Z,98519.36
2023-05-12T10:09:31.092Z,98517.77
2023-05-12T10:11:58.350Z,98506.95
2023-05-12T10:14:25.734Z,98508.45
2023-05-12T10:16:53.496Z,98510.06
2023-05-12T10:19:21.101Z,98507.15
2023-05-12T10:21:48.764Z,98508.38
2023-05-12T10:24:16.113Z,98506.00
2023-05-12T10:26:43.975Z,98515.64
2023-05-12T10:29:12.085Z,98508.52
2023-05-12T10:31:39.497Z,98510.38
2023-05-12T10:34:06.173Z,98506.45
2023-05-12T10:36:45.888Z,98503.29
2023-05-12T10:39:13.686Z,98502.93
2023-05-12T10:41:40.226Z,98501.65
2023-05-12T10:44:06.741Z,98501.45
2023-05-12T10:46:33.256Z,98503.33
2023-05-12T10:49:01.005Z,98503.45
2023-05-12T10:51:29.997Z,98500.66
2023-05-12T10:54:07.955Z,98503.02
2023-05-12T10:56:37.691Z,98505.56
2023-05-12T10:59:18.010Z,98507.27
2023-05-12T11:01:59.239Z,98505.23
2023-05-12T11:04:41.224Z,98500.45
2023-05-12T11:07:12.210Z,98499.83
2023-05-12T11:09:56.672Z,98498.41
2023-05-12T11:12:28.712Z,98499.70
2023-05-12T11:14:55.242Z,98509.36
2023-05-12T11:17:21.798Z,98507.02
2023-05-12T11:19:50.384Z,98515.15
2023-05-12T11:22:19.237Z,98505.86
2023-05-12T11:24:46.164Z,98509.57
2023-05-12T11:27:14.930Z,98503.98
2023-05-12T11:29:42.525Z,98501.48
2023-05-12T11:32:10.445Z,98499.73
2023-05-12T11:34:37.227Z,98497.19
2023-05-12T11:37:04.911Z,98495.13
2023-05-12T11:39:31.451Z,98493.69
2023-05-12T11:42:12.298Z,98497.23
2023-05-12T11:44:47.959Z,98490.44
2023-05-12T11:47:15.781Z,98488.36
2023-05-12T11:49:47.390Z,98489.16
2023-05-12T11:52:13.995Z,98490.91
2023-05-12T11:54:56.878Z,98486.23
2023-05-12T11:57:32.496Z,98488.87
2023-05-12T12:00:02.303Z,98490.33
2023-05-12T12:02:28.990Z,98488.83
2023-05-12T12:04:56.288Z,98489.27
2023-05-12T12:07:34.123Z,98492.48
2023-05-12T12:10:15.307Z,98493.21
2023-05-12T12:12:42.908Z,98491.25
2023-05-12T12:15:10.739Z,98487.27
2023-05-12T12:17:38.169Z,98481.84
2023-05-12T12:20:05.751Z,98484.98
2023-05-12T12:22:32.249Z,98480.49
2023-05-12T12:24:58.780Z,98477.44
2023-05-12T12:27:25.206Z,98477.50
2023-05-12T12:29:51.928Z,98484.27
2023-05-12T12:32:18.465Z,98481.88
2023-05-12T12:34:45.048Z,98478.13
2023-05-12T12:37:11.774Z,98471.13
2023-05-12T12:39:38.422Z,98472.36
2023-05-12T12:42:05.158Z,98469.90
2023-05-12T12:44:31.726Z,98484.92
2023-05-12T12:46:58.271Z,98486.39
2023-05-12T12:49:24.728Z,98487.34
2023-05-12T12:51:51.412Z,98484.63
2023-05-12T12:54:18.012Z,98486.83
2023-05-12T12:56:44.468Z,98486.93
2023-05-12T12:59:11.031Z,98492.02
2023-05-12T13:01:37.948Z,98489.42
2023-05-12T13:04:04.519Z,98488.98
2023-05-12T13:06:31.081Z,98488.21
2023-05-12T13:08:57.589Z,98490.57
2023-05-12T13:11:24.038Z,98491.48
2023-05-12T13:13:50.559Z,98488.38
2023-05-12T13:16:17.174Z,98488.53
2023-05-12T13:18:44.256Z,98490.41
2023-05-12T13:21:10.734Z,98484.73
2023-05-12T13:23:37.493Z,98480.70
2023-05-12T13:26:03.995Z,98479.12
2023-05-12T13:28:30.761Z,98474.56
2023-05-12T13:30:57.399Z,98471.02
2023-05-12T13:33:24.193Z,98467.50
2023-05-12T13:35:50.751Z,98461.36
2023-05-12T13:38:17.323Z,98463.70
2023-05-12T13:40:43.924Z,98459.71
2023-05-12T13:43:10.383Z,98464.04
2023-05-12T13:45:36.893Z,98461.52
2023-05-12T13:48:03.564Z,98461.90
2023-05-12T13:50:31.386Z,98466.29
2023-05-12T13:52:59.898Z,98465.35
2023-05-12T13:55:26.635Z,98465.20
2023-05-12T13:57:53.350Z,98462.45
2023-05-12T14:00:20.152Z,98460.70
2023-05-12T14:02:46.857Z,98458.56
2023-05-12T14:05:13.707Z,98459.96
2023-05-12T14:07:40.239Z,98459.10
2023-05-12T14:10:07.444Z,98460.04
2023-05-12T14:12:33.993Z,98461.20
2023-05-12T14:15:12.295Z,98458.27
2023-05-12T14:17:46.992Z,98459.92
2023-05-12T14:20:13.677Z,98457.05
2023-05-12T14:22:40.083Z,98457.05
2023-05-12T14:25:07.081Z,98456.42
2023-05-12T14:27:33.545Z,98455.37
2023-05-12T14:30:00.188Z,98455.27
2023-05-12T14:32:26.891Z,98452.17
2023-05-12T14:34:53.398Z,98451.44
2023-05-12T14:37:19.914Z,98453.46
2023-05-12T14:39:46.443Z,98450.30
2023-05-12T14:42:13.003Z,98451.52
2023-05-12T14:44:39.616Z,98452.75
2023-05-12T14:47:08.765Z,98456.48
2023-05-12T14:49:35.588Z,98455.02
2023-05-12T14:52:02.869Z,98451.95
2023-05-12T14:54:29.510Z,98453.50
2023-05-12T14:56:56.197Z,98453.41
2023-05-12T14:59:22.686Z,98452.38
2023-05-12T15:01:49.437Z,98455.87
2023-05-12T15:04:16.414Z,98456.64
2023-05-12T15:06:42.933Z,98454.55
2023-05-12T15:09:09.367Z,98457.83
2023-05-12T15:11:35.881Z,98455.06
2023-05-12T15:14:02.346Z,98458.78
2023-05-12T15:16:29.057Z,98460.36
2023-05-12T15:18:55.620Z,98459.00
2023-05-12T15:21:22.220Z,98462.59
2023-05-12T15:23:48.724Z,98462.36
2023-05-12T15:28:47.621Z,98465.58
2023-05-12T15:31:14.089Z,98465.79
2023-05-12T15:33:40.805Z,98463.25
2023-05-12T15:36:07.368Z,98464.89
2023-05-12T15:38:33.765Z,98465.46
2023-05-12T15:41:00.252Z,98468.77
2023-05-12T15:43:26.900Z,98465.80
2023-05-12T15:45:53.434Z,98467.27
2023-05-12T15:48:20.252Z,98472.52
2023-05-12T15:50:46.917Z,98469.63
2023-05-12T15:53:13.458Z,98470.07
2023-05-12T15:55:40.164Z,98465.96
2023-05-12T15:58:06.731Z,98457.23
2023-05-12T16:00:33.252Z,98457.48
2023-05-12T16:02:59.977Z,98459.34
2023-05-12T16:05:26.550Z,98455.52
2023-05-12T16:07:53.187Z,98457.33
2023-05-12T16:10:19.766Z,98456.77
2023-05-12T16:12:46.199Z,98461.11
2023-05-12T16:15:13.064Z,98457.80
2023-05-12T16:17:39.666Z,98462.80
2023-05-12T16:20:07.172Z,98464.44
2023-05-12T16:22:34.294Z,98465.25
2023-05-12T16:25:00.761Z,98463.79
2023-05-12T16:27:27.190Z,98467.05
2023-05-12T16:29:53.745Z,98468.83
2023-05-12T16:32:20.294Z,98471.18
2023-05-12T16:34:46.869Z,98479.65
2023-05-12T16:37:13.281Z,98474.20
2023-05-12T16:39:39.738Z,98478.32
2023-05-12T16:42:07.001Z,98477.12
2023-05-12T16:44:33.503Z,98478.30
2023-05-12T16:46:59.974Z,98480.50
2023-05-12T16:49:26.455Z,98481.08
2023-05-12T16:51:52.958Z,98484.29
2023-05-12T16:54:19.470Z,98487.70
2023-05-12T16:56:45.927Z,98486.97
2023-05-12T16:59:12.473Z,98494.77
2023-05-12T17:01:39.068Z,98493.11
2023-05-12T17:04:06.279Z,98499.96
2023-05-12T17:06:32.836Z,98506.65
2023-05-12T17:08:59.339Z,98497.62
2023-05-12T17:11:25.799Z,98504.46
2023-05-12T17:13:52.230Z,98503.90
2023-05-12T17:16:18.696Z,98507.95
2023-05-12T17:21:14.974Z,98508.15
2023-05-12T17:23:41.466Z,98502.09
2023-05-12T17:26:07.944Z,98508.07
2023-05-12T17:28:34.508Z,98508.06
2023-05-12T17:31:01.064Z,98505.33
2023-05-12T17:33:27.797Z,98504.99
2023-05-12T17:38:26.180Z,98513.04
2023-05-12T17:40:52.771Z,98511.09
2023-05-12T17:43:19.337Z,98510.79
2023-05-12T17:45:46.093Z,98514.93
2023-05-12T17:48:12.593Z,98514.21
2023-05-12T17:50:39.473Z,98516.53
2023-05-12T17:53:06.869Z,98519.86
2023-05-12T17:55:33.729Z,98522.23
2023-05-12T17:58:00.282Z,98526.83
2023-05-12T18:00:27.208Z,98525.55
2023-05-12T18:02:54.055Z,98528.88
2023-05-12T18:05:20.668Z,98532.78
2023-05-12T18:07:47.386Z,98532.48
2023-05-12T18:10:13.928Z,98538.95
2023-05-12T18:12:40.371Z,98537.78
2023-05-12T18:15:07.887Z,98539.14
2023-05-12T18:17:34.958Z,98542.02
2023-05-12T18:20:01.672Z,98545.20
2023-05-12T18:22:28.117Z,98547.37
2023-05-12T18:24:54.970Z,98546.97
2023-05-12T18:27:21.475Z,98550.85
2023-05-12T18:29:48.388Z,98556.17
2023-05-12T18:32:15.137Z,98561.14
2023-05-12T18:34:55.556Z,98564.23
2023-05-12T18:37:22.376Z,98566.48
2023-05-12T18:39:49.127Z,98570.84
2023-05-12T18:42:15.542Z,98567.86
2023-05-12T18:44:42.000Z,98570.71
2023-05-12T18:47:09.096Z,98571.93
2023-05-12T18:49:36.612Z,98573.19
2023-05-12T18:52:03.722Z,98571.36
2023-05-12T18:54:30.330Z,98572.23
2023-05-12T18:56:56.777Z,98575.13
2023-05-12T18:59:23.248Z,98576.67
2023-05-12T19:01:49.784Z,98575.98
2023-05-12T19:04:16.440Z,98579.23
2023-05-12T19:06:42.902Z,98583.20
2023-05-12T19:09:09.511Z,98584.36
2023-05-12T19:11:35.956Z,98589.43
2023-05-12T19:14:02.533Z,98588.23
2023-05-12T19:16:28.979Z,98589.77
2023-05-12T19:18:55.742Z,98595.16
2023-05-12T19:21:22.289Z,98595.69
2023-05-12T19:23:49.049Z,98596.46
2023-05-12T19:26:15.587Z,98598.83
2023-05-12T19:28:42.065Z,98595.64
2023-05-12T19:31:08.564Z,98596.50
2023-05-12T19:33:35.310Z,98599.23
2023-05-12T19:36:02.039Z,98600.32
2023-05-12T19:38:28.675Z,98604.95
2023-05-12T19:40:55.204Z,98608.64
2023-05-12T19:43:21.991Z,98608.64
2023-05-12T19:45:48.749Z,98612.73
2023-05-12T19:48:15.344Z,98611.93
2023-05-12T19:50:41.848Z,98613.89
2023-05-12T19:53:08.265Z,98611.94
2023-05-12T19:55:34.703Z,98609.52
2023-05-12T19:58:01.137Z,98609.64
2023-05-12T20:00:27.658Z,98610.00
2023-05-12T20:02:54.306Z,98609.85
2023-05-12T20:05:21.148Z,98613.19
2023-05-12T20:07:48.044Z,98612.02
2023-05-12T20:10:14.541Z,98613.38
2023-05-12T20:12:41.111Z,98616.09
2023-05-12T20:15:08.468Z,98610.30
2023-05-12T20:17:35.029Z,98612.83
2023-05-12T20:20:01.667Z,98615.15
2023-05-12T20:22:28.113Z,98612.73
2023-05-12T20:24:54.598Z,98611.88
2023-05-12T20:27:21.078Z,98618.25
2023-05-12T20:29:47.468Z,98620.45
2023-05-12T20:32:14.469Z,98623.28
2023-05-12T20:34:41.149Z,98621.40
2023-05-12T20:37:07.814Z,98625.58
2023-05-12T20:39:34.280Z,98626.76
2023-05-12T20:42:00.801Z,98625.46
2023-05-12T20:44:27.261Z,98632.98
2023-05-12T20:46:53.931Z,98635.15
2023-05-12T20:49:20.483Z,98635.10
2023-05-12T20:51:46.989Z,98637.80
2023-05-12T20:54:13.514Z,98644.64
2023-05-12T20:56:40.140Z,98640.34
2023-05-12T20:59:06.576Z,98645.75
2023-05-12T21:01:33.060Z,98650.48
2023-05-12T21:03:59.582Z,98653.90
2023-05-12T21:06:26.449Z,98655.47
2023-05-12T21:08:53.088Z,98657.09
2023-05-12T21:11:19.733Z,98660.45
2023-05-12T21:13:47.093Z,98658.39
2023-05-12T21:16:14.632Z,98660.77
2023-05-12T21:18:41.404Z,98662.74
2023-05-12T21:21:08.004Z,98664.88
2023-05-12T21:23:35.392Z,98665.27
2023-05-12T21:26:02.063Z,98668.08
2023-05-12T21:28:28.528Z,98668.61
2023-05-12T21:30:55.179Z,98670.80
2023-05-12T21:33:21.822Z,98673.91
2023-05-12T21:35:48.535Z,98675.30
2023-05-12T21:38:15.762Z,98679.30
2023-05-12T21:40:42.304Z,98679.67
2023-05-12T21:43:08.772Z,98682.66
2023-05-12T21:45:35.294Z,98683.50
2023-05-12T21:48:01.949Z,98682.62
2023-05-12T21:50:28.597Z,98683.88
2023-05-12T21:52:55.137Z,98686.91
2023-05-12T21:55:21.989Z,98688.77
2023-05-12T21:57:48.382Z,98686.85
2023-05-12T22:00:15.381Z,98688.70
2023-05-12T22:02:41.914Z,98687.81
2023-05-12T22:05:08.637Z,98692.50
2023-05-12T22:07:35.325Z,98688.75
2023-05-12T22:10:02.254Z,98693.02
2023-05-12T22:12:28.739Z,98689.36
2023-05-12T22:14:55.234Z,98696.06
2023-05-12T22:17:21.757Z,98698.73
2023-05-12T22:19:48.414Z,98701.15
2023-05-12T22:22:14.921Z,98704.70
2023-05-12T22:24:41.464Z,98706.21
2023-05-12T22:27:08.050Z,98709.07
2023-05-12T22:29:34.478Z,98709.99
2023-05-12T22:32:00.963Z,98702.77
2023-05-12T22:34:27.449Z,98700.40
2023-05-12T22:36:53.983Z,98698.72
2023-05-12T22:39:20.546Z,98697.82
2023-05-12T22:41:47.114Z,98698.83
2023-05-12T22:44:13.732Z,98696.00
2023-05-12T22:46:40.397Z,98694.90
2023-05-12T22:49:06.918Z,98695.94
2023-05-12T22:51:33.566Z,98697.25
2023-05-12T22:54:00.018Z,98701.06
2023-05-12T22:56:26.554Z,98701.90
2023-05-12T22:58:53.104Z,98703.33
2023-05-12T23:01:19.697Z,98704.25
2023-05-12T23:03:46.432Z,98701.29
2023-05-12T23:06:12.873Z,98702.36
2023-05-12T23:08:39.374Z,98696.41
2023-05-12T23:11:05.917Z,98693.38
2023-05-12T23:13:32.383Z,98698.96
2023-05-12T23:15:59.011Z,98696.57
2023-05-12T23:18:25.591Z,98692.76
2023-05-12T23:20:52.253Z,98697.80
2023-05-12T23:23:18.828Z,98697.64
2023-05-12T23:25:46.926Z,98699.77
2023-05-12T23:28:13.563Z,98707.14
2023-05-12T23:30:40.036Z,98708.88
2023-05-12T23:33:07.005Z,98707.09
2023-05-12T23:35:33.530Z,98711.05
2023-05-12T23:38:00.127Z,98708.10
2023-05-12T23:40:26.579Z,98700.93
2023-05-12T23:42:53.199Z,98702.04
2023-05-12T23:45:20.210Z,98698.83
2023-05-12T23:47:46.693Z,98701.17
2023-05-12T23:50:13.315Z,98702.19
2023-05-12T23:52:39.866Z,98701.63
2023-05-12T23:55:07.442Z,98703.17
2023-05-12T23:57:33.877Z,98700.95
